createdAt,value
2019-03-31T00:01:07.674Z,27.33
2019-03-31T00:03:38.656Z,28.40
2019-03-31T00:06:19.360Z,29.63
2019-03-31T00:09:00.011Z,28.07
2019-03-31T00:11:40.554Z,26.60
2019-03-31T00:14:21.262Z,28.40
2019-03-31T00:17:01.603Z,27.37
2019-03-31T00:19:42.187Z,30.90
2019-03-31T00:22:22.768Z,31.43
2019-03-31T00:25:03.241Z,30.27
2019-03-31T00:27:44.144Z,31.63
2019-03-31T00:30:25.321Z,28.90
2019-03-31T00:33:05.994Z,31.60
2019-03-31T00:35:46.391Z,34.10
2019-03-31T00:38:26.979Z,32.53
2019-03-31T00:41:08.247Z,32.30
2019-03-31T00:43:48.748Z,37.00
2019-03-31T00:46:29.935Z,36.63
2019-03-31T00:49:10.734Z,37.27
2019-03-31T00:51:51.481Z,40.93
2019-03-31T00:54:32.335Z,39.07
2019-03-31T00:57:32.147Z,39.40
2019-03-31T01:00:14.842Z,43.73
2019-03-31T01:02:55.816Z,36.80
2019-03-31T01:05:36.414Z,39.23
2019-03-31T01:08:17.371Z,47.53
2019-03-31T01:10:58.343Z,43.27
2019-03-31T01:16:44.059Z,52.80
2019-03-31T01:19:25.725Z,51.07
2019-03-31T01:22:06.574Z,44.00
2019-03-31T01:24:47.557Z,44.43
2019-03-31T01:27:28.902Z,46.50
2019-03-31T01:30:10.969Z,37.23
2019-03-31T01:32:51.947Z,38.93
2019-03-31T01:35:32.716Z,43.73
2019-03-31T01:38:13.815Z,40.53
2019-03-31T01:40:55.148Z,34.90
2019-03-31T01:43:36.048Z,39.30
2019-03-31T01:46:17.739Z,37.10
2019-03-31T01:48:58.511Z,40.23
2019-03-31T01:51:39.626Z,40.77
2019-03-31T01:54:20.302Z,40.83
2019-03-31T01:57:00.997Z,38.17
2019-03-31T01:59:42.139Z,42.83
2019-03-31T02:05:30.338Z,43.17
2019-03-31T02:08:11.403Z,41.37
2019-03-31T02:10:52.182Z,43.20
2019-03-31T02:13:32.586Z,43.77
2019-03-31T02:16:13.604Z,42.67
2019-03-31T02:18:42.341Z,40.67
2019-03-31T02:21:30.378Z,42.47
2019-03-31T02:24:18.363Z,42.17
2019-03-31T02:27:06.340Z,41.37
2019-03-31T02:29:54.272Z,43.10
2019-03-31T02:32:42.188Z,43.27
2019-03-31T02:35:30.292Z,45.80
2019-03-31T02:38:18.206Z,43.00
2019-03-31T02:41:06.139Z,43.93
2019-03-31T02:43:54.049Z,41.63
2019-03-31T02:46:41.981Z,44.37
2019-03-31T02:49:29.909Z,40.87
2019-03-31T02:52:17.887Z,43.33
2019-03-31T02:55:06.196Z,41.80
2019-03-31T02:57:47.429Z,41.27
2019-03-31T03:00:27.953Z,44.80
2019-03-31T03:03:08.440Z,50.93
2019-03-31T03:05:49.143Z,45.47
2019-03-31T03:08:29.840Z,38.87
2019-03-31T03:11:10.598Z,43.00
2019-03-31T03:13:51.128Z,42.53
2019-03-31T03:16:35.192Z,40.77
2019-03-31T03:19:16.100Z,42.97
2019-03-31T03:21:56.934Z,46.17
2019-03-31T03:24:37.424Z,42.57
2019-03-31T03:27:17.892Z,46.50
2019-03-31T03:29:58.814Z,42.07
2019-03-31T03:33:10.176Z,47.87
2019-03-31T03:35:23.071Z,47.47
2019-03-31T03:38:04.056Z,44.33
2019-03-31T03:40:45.096Z,49.47
2019-03-31T03:43:25.711Z,50.53
2019-03-31T03:46:06.369Z,52.80
2019-03-31T03:48:47.042Z,51.73
2019-03-31T03:51:27.691Z,44.17
2019-03-31T03:54:08.284Z,45.40
2019-03-31T03:59:57.152Z,50.97
2019-03-31T04:05:57.112Z,51.33
2019-03-31T04:08:37.800Z,57.37
2019-03-31T04:11:21.162Z,55.77
2019-03-31T04:14:01.211Z,55.70
2019-03-31T04:16:41.988Z,57.10
2019-03-31T04:19:22.888Z,59.67
2019-03-31T04:22:03.999Z,60.93
2019-03-31T04:24:44.913Z,57.40
2019-03-31T04:30:33.529Z,56.97
2019-03-31T04:33:14.065Z,51.10
2019-03-31T04:35:54.861Z,55.83
2019-03-31T04:38:35.451Z,52.27
2019-03-31T04:41:16.298Z,50.13
2019-03-31T04:43:56.938Z,50.57
2019-03-31T04:46:37.383Z,54.73
2019-03-31T04:49:18.121Z,52.67
2019-03-31T04:51:59.069Z,46.37
2019-03-31T04:54:40.340Z,50.50
2019-03-31T04:57:21.277Z,49.73
2019-03-31T05:00:02.072Z,46.40
2019-03-31T05:02:42.539Z,45.77
2019-03-31T05:05:23.222Z,47.20
2019-03-31T05:08:03.679Z,47.20
2019-03-31T05:10:44.064Z,48.47
2019-03-31T05:13:24.879Z,47.60
2019-03-31T05:16:05.571Z,46.53
2019-03-31T05:18:46.164Z,49.40
2019-03-31T05:21:27.252Z,43.37
2019-03-31T05:24:07.911Z,46.17
2019-03-31T05:26:48.889Z,44.57
2019-03-31T05:29:29.815Z,41.53
2019-03-31T05:32:10.521Z,45.03
2019-03-31T05:34:51.403Z,43.37
2019-03-31T05:37:32.126Z,42.13
2019-03-31T05:40:12.752Z,43.70
2019-03-31T05:42:53.880Z,44.33
2019-03-31T05:45:34.615Z,41.10
2019-03-31T05:48:15.707Z,43.03
2019-03-31T05:50:56.507Z,43.70
2019-03-31T05:53:37.346Z,43.97
2019-03-31T05:56:18.008Z,43.57
2019-03-31T05:58:58.852Z,39.80
2019-03-31T06:01:39.751Z,41.37
2019-03-31T06:04:32.591Z,39.47
2019-03-31T06:07:03.799Z,42.93
2019-03-31T06:09:44.394Z,37.00
2019-03-31T06:12:25.104Z,36.93
2019-03-31T06:15:05.508Z,42.13
2019-03-31T06:17:46.376Z,41.73
2019-03-31T06:20:26.843Z,43.17
2019-03-31T06:23:07.507Z,39.27
2019-03-31T06:25:47.899Z,41.97
2019-03-31T06:28:28.520Z,34.60
2019-03-31T06:31:09.092Z,39.90
2019-03-31T06:33:49.551Z,42.30
2019-03-31T06:36:30.133Z,34.80
2019-03-31T06:39:10.828Z,36.67
2019-03-31T06:41:51.453Z,43.13
2019-03-31T06:44:32.285Z,34.83
2019-03-31T06:47:12.987Z,34.03
2019-03-31T06:49:53.753Z,36.20
2019-03-31T06:52:34.547Z,34.90
2019-03-31T06:55:15.244Z,34.30
2019-03-31T06:57:56.126Z,33.27
2019-03-31T07:00:37.434Z,37.43
2019-03-31T07:03:18.335Z,33.60
2019-03-31T07:05:58.996Z,35.87
2019-03-31T07:08:39.692Z,30.63
2019-03-31T07:11:20.427Z,31.23
2019-03-31T07:14:00.811Z,29.03
2019-03-31T07:16:41.559Z,30.50
2019-03-31T07:19:22.654Z,27.27
2019-03-31T07:22:03.412Z,26.50
2019-03-31T07:24:31.988Z,26.27
2019-03-31T07:27:19.972Z,24.00
2019-03-31T07:30:27.345Z,26.97
2019-03-31T07:33:15.290Z,26.40
2019-03-31T07:36:03.193Z,15.10
2019-03-31T07:38:51.174Z,16.87
2019-03-31T07:41:39.221Z,13.53
2019-03-31T07:44:28.612Z,13.10
2019-03-31T07:47:16.539Z,11.80
2019-03-31T07:50:28.177Z,14.03
2019-03-31T07:53:14.739Z,13.20
2019-03-31T07:56:02.691Z,12.67
2019-03-31T07:58:43.330Z,13.23
2019-03-31T08:01:24.186Z,16.07
2019-03-31T08:04:04.703Z,10.63
2019-03-31T08:06:45.431Z,12.73
2019-03-31T08:09:26.390Z,9.97
2019-03-31T08:12:07.250Z,9.77
2019-03-31T08:14:48.138Z,11.33
2019-03-31T08:17:28.976Z,8.70
2019-03-31T08:20:09.811Z,10.60
2019-03-31T08:22:51.488Z,10.33
2019-03-31T08:25:31.930Z,7.83
2019-03-31T08:28:12.763Z,10.60
2019-03-31T08:30:53.612Z,8.27
2019-03-31T08:33:34.840Z,7.57
2019-03-31T08:36:15.574Z,6.87
2019-03-31T08:38:56.504Z,6.20
2019-03-31T08:41:37.298Z,6.07
2019-03-31T08:44:18.154Z,8.13
2019-03-31T08:46:59.094Z,7.33
2019-03-31T08:49:39.967Z,8.03
2019-03-31T08:52:20.563Z,7.30
2019-03-31T08:55:01.043Z,6.10
2019-03-31T08:57:41.723Z,5.60
2019-03-31T09:00:24.190Z,6.63
2019-03-31T09:03:05.275Z,6.17
2019-03-31T09:05:45.906Z,3.47
2019-03-31T09:08:26.814Z,4.60
2019-03-31T09:11:07.611Z,5.77
2019-03-31T09:13:48.658Z,6.03
2019-03-31T09:16:29.514Z,4.53
2019-03-31T09:19:10.048Z,7.37
2019-03-31T09:21:51.036Z,4.93
2019-03-31T09:24:31.832Z,3.77
2019-03-31T09:27:12.339Z,4.83
2019-03-31T09:29:53.418Z,4.57
2019-03-31T09:32:33.919Z,6.47
2019-03-31T09:35:14.854Z,6.37
2019-03-31T09:37:55.404Z,6.87
2019-03-31T09:40:36.352Z,4.47
2019-03-31T09:43:17.072Z,3.70
2019-03-31T09:45:57.462Z,5.87
2019-03-31T09:48:38.379Z,3.40
2019-03-31T09:51:19.158Z,4.03
2019-03-31T09:54:00.224Z,4.30
2019-03-31T09:56:40.810Z,7.67
2019-03-31T09:59:21.539Z,2.00
2019-03-31T10:02:01.912Z,2.07
2019-03-31T10:04:42.831Z,4.53
2019-03-31T10:07:23.924Z,5.13
2019-03-31T10:10:05.083Z,6.03
2019-03-31T10:12:46.407Z,3.80
2019-03-31T10:15:30.437Z,4.13
2019-03-31T10:18:10.821Z,3.77
2019-03-31T10:20:51.791Z,3.90
2019-03-31T10:23:32.315Z,3.83
2019-03-31T10:26:15.981Z,3.73
2019-03-31T10:28:56.022Z,4.70
2019-03-31T10:31:36.743Z,4.70
2019-03-31T10:34:17.911Z,5.27
2019-03-31T10:36:58.578Z,3.30
2019-03-31T10:39:39.625Z,4.80
2019-03-31T10:42:20.236Z,5.17
2019-03-31T10:45:01.060Z,6.70
2019-03-31T10:47:41.928Z,4.13
2019-03-31T10:50:22.819Z,4.13
2019-03-31T10:53:03.680Z,5.77
2019-03-31T10:55:44.134Z,4.10
2019-03-31T10:58:24.661Z,6.27
2019-03-31T11:01:05.410Z,4.80
2019-03-31T11:03:45.794Z,7.37
2019-03-31T11:06:26.682Z,5.03
2019-03-31T11:09:07.659Z,5.10
2019-03-31T11:11:48.563Z,4.40
2019-03-31T11:14:29.519Z,8.30
2019-03-31T11:17:10.221Z,5.03
2019-03-31T11:19:50.836Z,5.67
2019-03-31T11:25:38.855Z,4.80
2019-03-31T11:28:20.078Z,3.73
2019-03-31T11:31:01.295Z,6.03
2019-03-31T11:33:42.584Z,4.37
2019-03-31T11:36:23.375Z,4.43
2019-03-31T11:39:05.352Z,3.40
2019-03-31T11:41:46.080Z,3.83
2019-03-31T11:44:27.844Z,4.80
2019-03-31T11:47:08.548Z,6.67
2019-03-31T11:49:48.959Z,5.63
2019-03-31T11:52:29.731Z,6.17
2019-03-31T11:55:10.875Z,3.83
2019-03-31T11:57:51.808Z,4.33
2019-03-31T12:00:33.892Z,7.90
2019-03-31T12:03:14.943Z,5.27
2019-03-31T12:05:55.932Z,4.93
2019-03-31T12:08:36.556Z,4.27
2019-03-31T12:11:17.371Z,7.37
2019-03-31T12:13:57.860Z,4.47
2019-03-31T12:16:38.556Z,4.57
2019-03-31T12:19:19.217Z,3.07
2019-03-31T12:22:02.554Z,4.90
2019-03-31T12:24:43.482Z,5.33
2019-03-31T12:27:24.264Z,5.10
2019-03-31T12:30:04.668Z,5.90
2019-03-31T12:32:45.514Z,4.47
2019-03-31T12:35:26.156Z,7.00
2019-03-31T12:38:07.040Z,5.17
2019-03-31T12:40:47.565Z,3.87
2019-03-31T12:43:28.474Z,4.20
2019-03-31T12:46:09.199Z,6.10
2019-03-31T12:48:49.855Z,5.73
2019-03-31T12:51:30.562Z,4.00
2019-03-31T12:54:10.977Z,4.23
2019-03-31T12:56:54.803Z,3.23
2019-03-31T13:02:55.058Z,6.43
2019-03-31T13:05:35.436Z,4.83
2019-03-31T13:08:16.251Z,5.30
2019-03-31T13:10:56.672Z,5.40
2019-03-31T13:13:37.212Z,6.47
2019-03-31T13:16:17.943Z,5.33
2019-03-31T13:18:58.567Z,6.03
2019-03-31T13:21:39.354Z,4.80
2019-03-31T13:24:20.599Z,3.77
2019-03-31T13:27:01.350Z,5.90
2019-03-31T13:29:42.044Z,4.87
2019-03-31T13:35:27.971Z,4.13
2019-03-31T13:38:11.240Z,5.97
2019-03-31T13:40:51.496Z,7.37
2019-03-31T13:43:32.079Z,5.33
2019-03-31T13:46:13.017Z,4.73
2019-03-31T13:48:54.158Z,6.67
2019-03-31T13:51:35.103Z,3.80
2019-03-31T13:54:15.669Z,4.47
2019-03-31T13:56:56.914Z,5.97
2019-03-31T13:59:37.701Z,5.47
2019-03-31T14:02:18.570Z,6.13
2019-03-31T14:04:59.007Z,5.40
2019-03-31T14:07:39.842Z,3.60
2019-03-31T14:10:20.999Z,8.10
2019-03-31T14:13:01.576Z,7.80
2019-03-31T14:15:42.743Z,5.70
2019-03-31T14:21:32.089Z,6.17
2019-03-31T14:24:12.760Z,4.40
2019-03-31T14:26:53.171Z,5.00
2019-03-31T14:29:34.019Z,9.70
2019-03-31T14:32:14.885Z,3.97
2019-03-31T14:34:55.372Z,4.10
2019-03-31T14:37:36.076Z,5.13
2019-03-31T14:40:16.855Z,4.77
2019-03-31T14:42:57.415Z,4.43
2019-03-31T14:45:37.895Z,5.83
2019-03-31T14:48:18.743Z,3.90
2019-03-31T14:50:59.361Z,6.93
2019-03-31T14:53:40.236Z,2.77
2019-03-31T14:56:20.948Z,4.63
2019-03-31T14:59:01.925Z,2.30
2019-03-31T15:01:42.544Z,3.37
2019-03-31T15:04:23.459Z,4.47
2019-03-31T15:07:04.307Z,3.57
2019-03-31T15:09:45.115Z,3.93
2019-03-31T15:12:25.773Z,3.43
2019-03-31T15:15:06.323Z,2.97
2019-03-31T15:17:46.920Z,2.07
2019-03-31T15:20:27.708Z,4.33
2019-03-31T15:23:08.275Z,2.63
2019-03-31T15:25:48.939Z,2.87
2019-03-31T15:28:29.534Z,3.23
2019-03-31T15:31:09.934Z,2.93
2019-03-31T15:33:50.725Z,4.60
2019-03-31T15:36:19.282Z,2.40
2019-03-31T15:39:09.298Z,5.00
2019-03-31T15:41:57.443Z,2.97
2019-03-31T15:44:45.371Z,4.30
2019-03-31T15:47:33.274Z,4.43
2019-03-31T15:50:21.480Z,4.07
2019-03-31T15:53:09.411Z,2.40
2019-03-31T15:55:57.321Z,3.97
2019-03-31T15:58:41.541Z,3.83
2019-03-31T16:01:22.802Z,2.60
2019-03-31T16:04:03.703Z,2.80
2019-03-31T16:06:44.223Z,3.20
2019-03-31T16:09:24.914Z,2.97
2019-03-31T16:12:05.359Z,3.00
2019-03-31T16:14:46.171Z,2.40
2019-03-31T16:17:26.775Z,2.63
2019-03-31T16:20:07.649Z,4.17
2019-03-31T16:22:48.171Z,4.50
2019-03-31T16:25:30.782Z,3.23
2019-03-31T16:28:11.993Z,2.23
2019-03-31T16:30:52.461Z,3.57
2019-03-31T16:33:33.186Z,2.33
2019-03-31T16:36:13.691Z,3.17
2019-03-31T16:38:54.359Z,4.00
2019-03-31T16:41:35.053Z,4.27
2019-03-31T16:44:15.889Z,5.00
2019-03-31T16:46:56.241Z,3.30
2019-03-31T16:49:36.980Z,1.90
2019-03-31T16:58:45.126Z,7.30
2019-03-31T17:01:25.960Z,3.67
2019-03-31T17:04:06.874Z,3.53
2019-03-31T17:06:47.647Z,3.40
2019-03-31T17:09:51.682Z,5.77
2019-03-31T17:12:29.878Z,5.37
2019-03-31T17:15:10.323Z,3.87
2019-03-31T17:17:50.955Z,7.50
2019-03-31T17:23:36.627Z,4.77
2019-03-31T17:26:05.287Z,6.33
2019-03-31T17:28:53.208Z,5.37
2019-03-31T17:31:41.135Z,3.50
2019-03-31T17:34:29.071Z,6.97
2019-03-31T17:37:16.980Z,4.70
2019-03-31T17:40:25.627Z,5.93
2019-03-31T17:43:13.538Z,5.80
2019-03-31T17:46:01.530Z,4.93
2019-03-31T17:48:49.444Z,5.93
2019-03-31T17:51:37.635Z,6.00
2019-03-31T17:54:25.567Z,4.53
2019-03-31T17:57:13.496Z,5.33
2019-03-31T18:00:01.460Z,4.03
2019-03-31T18:02:49.437Z,6.97
2019-03-31T18:05:37.400Z,4.50
2019-03-31T18:08:25.302Z,4.10
2019-03-31T18:11:13.235Z,6.70
2019-03-31T18:14:01.147Z,2.63
2019-03-31T18:16:49.077Z,5.83
2019-03-31T18:19:37.010Z,4.27
2019-03-31T18:22:24.917Z,3.77
2019-03-31T18:25:12.857Z,4.50
2019-03-31T18:28:00.754Z,6.37
2019-03-31T18:30:48.720Z,4.27
2019-03-31T18:33:36.630Z,3.57
2019-03-31T18:36:35.841Z,4.20
2019-03-31T18:39:14.134Z,6.13
2019-03-31T18:42:02.162Z,3.07
2019-03-31T18:44:50.100Z,3.23
2019-03-31T18:47:38.016Z,8.57
2019-03-31T18:50:25.952Z,2.40
2019-03-31T18:56:41.593Z,5.80
2019-03-31T18:59:42.019Z,6.93
2019-03-31T19:02:42.356Z,7.10
2019-03-31T19:05:25.128Z,8.40
2019-03-31T19:08:10.452Z,7.30
2019-03-31T19:10:52.662Z,5.63
2019-03-31T19:13:35.440Z,4.80
2019-03-31T19:16:34.995Z,3.60
2019-03-31T19:19:35.246Z,3.63
2019-03-31T19:22:35.787Z,4.37
2019-03-31T19:25:35.376Z,4.67
2019-03-31T19:28:35.785Z,5.40
2019-03-31T19:31:21.338Z,5.37
2019-03-31T19:34:06.605Z,5.33
2019-03-31T19:36:49.195Z,6.27
2019-03-31T19:39:48.907Z,4.30
2019-03-31T19:42:34.774Z,3.13
2019-03-31T19:45:34.411Z,4.87
2019-03-31T19:48:34.645Z,3.23
2019-03-31T19:51:34.171Z,3.73
2019-03-31T19:57:41.791Z,4.63
2019-03-31T20:00:26.407Z,6.77
2019-03-31T20:03:26.887Z,5.60
2019-03-31T20:06:08.920Z,4.93
2019-03-31T20:08:51.686Z,3.03
2019-03-31T20:11:36.764Z,3.73
2019-03-31T20:14:36.559Z,4.10
2019-03-31T20:17:18.935Z,2.07
2019-03-31T20:20:01.059Z,5.10
2019-03-31T20:25:54.874Z,3.93
2019-03-31T20:28:37.773Z,4.60
2019-03-31T20:31:20.308Z,3.30
2019-03-31T20:34:20.520Z,3.67
2019-03-31T20:37:03.639Z,3.20
2019-03-31T20:39:56.557Z,3.27
2019-03-31T20:42:47.216Z,5.67
2019-03-31T20:45:28.413Z,3.30
2019-03-31T20:47:57.003Z,7.33
2019-03-31T20:50:44.911Z,2.43
2019-03-31T20:53:32.850Z,5.70
2019-03-31T20:56:20.920Z,2.87
2019-03-31T20:59:01.305Z,4.67
2019-03-31T21:01:41.923Z,3.57
2019-03-31T21:04:22.632Z,3.07
2019-03-31T21:07:03.122Z,3.30
2019-03-31T21:09:45.019Z,2.47
2019-03-31T21:12:26.574Z,2.93
2019-03-31T21:15:06.883Z,2.00
2019-03-31T21:17:47.844Z,4.23
2019-03-31T21:20:28.522Z,4.00
2019-03-31T21:23:09.315Z,4.43
2019-03-31T21:25:50.160Z,3.30
2019-03-31T21:28:30.895Z,4.10
2019-03-31T21:31:11.506Z,3.43
2019-03-31T21:33:52.343Z,2.50
2019-03-31T21:36:33.115Z,7.17
2019-03-31T21:39:13.991Z,3.47
2019-03-31T21:41:54.640Z,5.43
2019-03-31T21:44:35.386Z,3.70
2019-03-31T21:47:16.180Z,2.47
2019-03-31T21:49:56.987Z,4.40
2019-03-31T21:52:37.917Z,2.07
2019-03-31T21:55:18.551Z,2.97
2019-03-31T21:57:59.241Z,2.83
2019-03-31T22:00:58.992Z,2.33
2019-03-31T22:03:43.062Z,5.60
2019-03-31T22:06:23.664Z,3.27
2019-03-31T22:09:06.115Z,3.33
2019-03-31T22:11:46.988Z,4.70
2019-03-31T22:14:27.908Z,5.40
2019-03-31T22:17:08.276Z,3.20
2019-03-31T22:19:49.270Z,3.63
2019-03-31T22:22:29.849Z,1.97
2019-03-31T22:25:10.235Z,1.93
2019-03-31T22:27:51.043Z,4.83
2019-03-31T22:30:32.231Z,2.13
2019-03-31T22:33:13.039Z,4.20
2019-03-31T22:36:12.936Z,4.83
2019-03-31T22:38:54.164Z,4.20
2019-03-31T22:41:34.656Z,2.27
2019-03-31T22:44:15.479Z,3.83
2019-03-31T22:46:56.344Z,3.60
2019-03-31T22:49:37.064Z,4.00
2019-03-31T22:52:17.895Z,3.23
2019-03-31T22:54:58.759Z,3.13
2019-03-31T22:57:39.268Z,3.93
2019-03-31T23:00:21.768Z,3.17
2019-03-31T23:03:02.927Z,3.37
2019-03-31T23:05:43.867Z,3.33
2019-03-31T23:08:24.500Z,4.13
2019-03-31T23:11:05.070Z,4.17
2019-03-31T23:13:45.848Z,1.37
2019-03-31T23:16:26.574Z,3.73
2019-03-31T23:19:07.216Z,2.93
2019-03-31T23:25:07.243Z,3.50
2019-03-31T23:27:47.863Z,2.50
2019-03-31T23:30:28.488Z,4.00
2019-03-31T23:33:09.141Z,2.30
2019-03-31T23:35:49.711Z,2.33
2019-03-31T23:38:30.586Z,1.73
2019-03-31T23:41:11.119Z,3.37
2019-03-31T23:43:51.714Z,4.23
2019-03-31T23:46:32.373Z,3.67
2019-03-31T23:49:13.169Z,5.17
2019-03-31T23:51:53.840Z,4.50
2019-03-31T23:54:34.495Z,4.03
2019-03-31T23:57:16.147Z,7.00
2019-03-31T23:59:56.875Z,2.07
